Time;durP1;ratioP1;P1;durP2;ratioP2;P2;SDS_P1;SDS_P2;PMS_P1;PMS_P2;Temp;Humidity;BMP_temperature;BMP_pressure;BME280_temperature;BME280_humidity;BME280_pressure;Samples;Min_cycle;Max_cycle;Signal;HPM_P1;HPM_P2
2021/01/23 00:00:58;;;;;;;34.83;18.10;;;2.20;91.60;;;;;;5077732;28;20031;-69
2021/01/23 00:03:25;;;;;;;34.13;18.30;;;2.20;91.60;;;;;;5077947;28;20024;-69
2021/01/23 00:05:51;;;;;;;32.90;17.45;;;2.20;91.70;;;;;;5077367;28;20024;-70
2021/01/23 00:08:17;;;;;;;36.25;17.25;;;2.20;91.70;;;;;;5077680;28;20055;-69
2021/01/23 00:10:44;;;;;;;33.40;17.02;;;2.20;91.80;;;;;;5077729;28;20090;-69
2021/01/23 00:13:09;;;;;;;32.47;18.42;;;2.20;91.90;;;;;;5077166;28;20020;-69
2021/01/23 00:15:35;;;;;;;35.40;17.55;;;2.30;92.00;;;;;;5077994;28;20035;-69
2021/01/23 00:18:01;;;;;;;37.40;17.30;;;2.30;92.10;;;;;;5077168;28;20020;-69
2021/01/23 00:20:27;;;;;;;37.08;16.95;;;2.30;92.20;;;;;;5095421;28;20032;-69
2021/01/23 00:22:53;;;;;;;29.27;16.15;;;2.30;92.20;;;;;;5075388;28;20074;-69
2021/01/23 00:25:19;;;;;;;36.47;17.50;;;2.40;92.60;;;;;;5077268;28;20016;-70
2021/01/23 00:27:44;;;;;;;32.25;16.75;;;2.40;92.30;;;;;;5077089;28;20363;-69
2021/01/23 00:30:11;;;;;;;32.08;16.73;;;2.40;92.40;;;;;;5075705;28;20089;-71
2021/01/23 00:32:37;;;;;;;37.05;18.42;;;2.40;92.50;;;;;;5071308;28;20024;-69
2021/01/23 00:35:03;;;;;;;39.22;18.55;;;2.50;92.60;;;;;;5073962;28;20028;-69
2021/01/23 00:37:29;;;;;;;37.03;17.67;;;2.50;92.60;;;;;;5068788;28;20028;-69
2021/01/23 00:39:55;;;;;;;42.58;19.25;;;2.50;92.70;;;;;;5076478;28;20020;-70
2021/01/23 00:42:20;;;;;;;38.47;18.63;;;2.50;92.70;;;;;;5077194;28;20119;-69
2021/01/23 00:44:46;;;;;;;29.80;14.95;;;2.60;92.80;;;;;;5077171;28;20467;-69
2021/01/23 00:47:12;;;;;;;29.20;14.38;;;2.60;92.90;;;;;;5076586;28;20094;-69
2021/01/23 00:49:37;;;;;;;28.67;14.82;;;2.70;93.00;;;;;;5095191;28;20024;-69
2021/01/23 00:52:03;;;;;;;27.88;14.27;;;2.70;93.20;;;;;;5076529;28;20397;-69
2021/01/23 00:54:29;;;;;;;25.95;13.57;;;2.80;93.30;;;;;;5077003;28;20028;-70
2021/01/23 00:56:55;;;;;;;24.92;12.77;;;2.80;93.40;;;;;;5076462;28;20070;-70
2021/01/23 00:59:21;;;;;;;24.58;13.02;;;2.90;93.50;;;;;;5094876;28;20028;-69
2021/01/23 01:01:47;;;;;;;27.90;14.02;;;2.90;93.60;;;;;;5095486;28;20024;-69
2021/01/23 01:04:12;;;;;;;21.88;12.25;;;3.00;93.60;;;;;;5076434;28;20359;-69
2021/01/23 01:06:38;;;;;;;25.88;14.57;;;3.10;93.70;;;;;;5076759;28;20390;-69
2021/01/23 01:09:04;;;;;;;24.65;11.90;;;3.10;93.70;;;;;;5094670;28;20032;-70
2021/01/23 01:11:30;;;;;;;19.85;11.75;;;3.20;93.80;;;;;;5076648;28;20449;-69
2021/01/23 01:13:55;;;;;;;20.38;11.60;;;3.30;93.80;;;;;;5076341;28;20031;-70
2021/01/23 01:16:21;;;;;;;22.02;12.40;;;3.30;93.80;;;;;;5076712;28;20363;-69
2021/01/23 01:18:47;;;;;;;19.67;12.07;;;3.30;93.80;;;;;;5076561;28;20023;-69
2021/01/23 01:21:13;;;;;;;22.42;12.48;;;3.40;93.80;;;;;;5094651;28;20028;-69
2021/01/23 01:23:38;;;;;;;22.67;11.18;;;3.50;93.90;;;;;;5076406;28;20020;-69
2021/01/23 01:26:05;;;;;;;22.00;11.63;;;3.50;93.80;;;;;;5094003;28;20470;-69
2021/01/23 01:28:30;;;;;;;22.80;12.32;;;3.60;93.70;;;;;;5076432;28;20051;-70
2021/01/23 01:30:56;;;;;;;20.27;12.88;;;3.60;93.70;;;;;;5076057;28;20446;-69
2021/01/23 01:33:22;;;;;;;18.92;10.15;;;3.60;93.60;;;;;;5076072;28;20044;-69
2021/01/23 01:35:48;;;;;;;17.75;10.13;;;3.70;93.70;;;;;;5075502;28;20089;-69
2021/01/23 01:38:13;;;;;;;19.90;10.95;;;3.70;93.70;;;;;;5094007;28;20051;-69
2021/01/23 01:40:39;;;;;;;18.88;9.95;;;3.80;93.70;;;;;;5076037;28;20039;-70
2021/01/23 01:43:05;;;;;;;19.85;12.13;;;3.80;93.60;;;;;;5075084;28;20069;-70
2021/01/23 01:45:30;;;;;;;19.60;10.88;;;3.80;93.60;;;;;;5072853;28;20028;-70
2021/01/23 01:47:58;;;;;;;23.25;12.63;;;3.80;93.60;;;;;;5075847;28;20063;-69
2021/01/23 01:50:23;;;;;;;25.00;12.60;;;3.80;93.60;;;;;;5061874;28;20073;-69
2021/01/23 01:52:51;;;;;;;23.58;13.65;;;3.80;93.60;;;;;;5072312;28;20097;-70
2021/01/23 01:55:18;;;;;;;23.85;13.10;;;3.80;93.70;;;;;;5072144;28;20039;-69
2021/01/23 01:57:44;;;;;;;22.42;12.15;;;3.90;93.70;;;;;;5065579;28;20028;-69
2021/01/23 02:00:10;;;;;;;20.65;12.02;;;3.90;93.60;;;;;;5061559;28;20039;-70
2021/01/23 02:03:12;;;;;;;24.17;12.05;;;3.90;93.70;;;;;;5072305;28;20017;-70
2021/01/23 02:05:58;;;;;;;20.67;10.05;;;3.90;93.70;;;;;;5070545;28;20052;-70
2021/01/23 02:08:46;;;;;;;22.15;12.50;;;3.90;93.60;;;;;;5087167;28;20036;-70
2021/01/23 02:11:22;;;;;;;21.33;11.60;;;4.00;93.80;;;;;;5060789;28;20052;-70
2021/01/23 02:13:54;;;;;;;19.95;10.60;;;3.90;93.50;;;;;;5057434;28;20024;-70
2021/01/23 02:16:25;;;;;;;21.30;11.13;;;3.90;93.50;;;;;;5093593;28;20406;-70
2021/01/23 02:19:09;;;;;;;22.40;11.57;;;3.90;93.60;;;;;;5075336;28;20024;-70
2021/01/23 02:22:09;;;;;;;25.60;11.65;;;3.90;93.60;;;;;;5075636;28;20078;-70
2021/01/23 02:24:35;;;;;;;25.60;13.85;;;3.90;93.70;;;;;;5056420;28;20474;-70
2021/01/23 02:27:12;;;;;;;22.38;13.75;;;3.90;93.80;;;;;;5063030;28;20031;-70
2021/01/23 02:29:56;;;;;;;21.42;11.25;;;3.90;93.80;;;;;;5064368;28;20013;-70
2021/01/23 02:32:23;;;;;;;24.92;13.98;;;3.90;93.90;;;;;;5075577;28;20039;-70
2021/01/23 02:34:50;;;;;;;23.55;12.52;;;3.90;94.10;;;;;;5074928;28;20028;-69
2021/01/23 02:37:17;;;;;;;22.52;12.38;;;3.90;94.00;;;;;;5075591;28;20470;-69
2021/01/23 02:39:43;;;;;;;24.90;13.05;;;3.90;94.00;;;;;;5074050;28;20028;-70
2021/01/23 02:42:09;;;;;;;24.90;13.02;;;3.90;94.00;;;;;;5064131;28;20028;-69
2021/01/23 02:44:34;;;;;;;24.10;11.82;;;4.00;94.10;;;;;;5064895;28;20073;-70
2021/01/23 02:47:00;;;;;;;26.33;14.50;;;4.00;94.00;;;;;;5073992;28;20085;-69
2021/01/23 02:49:26;;;;;;;27.67;14.82;;;4.00;94.10;;;;;;5074685;28;20024;-69
2021/01/23 02:52:11;;;;;;;28.88;12.80;;;4.00;94.00;;;;;;5063844;28;20546;-70
2021/01/23 02:54:49;;;;;;;29.60;15.45;;;3.90;93.90;;;;;;5071993;28;20020;-69
2021/01/23 02:57:17;;;;;;;26.17;13.98;;;3.90;94.00;;;;;;5074480;28;20115;-70
2021/01/23 02:59:46;;;;;;;25.83;13.35;;;4.00;94.10;;;;;;5074870;28;20028;-70
2021/01/23 03:02:16;;;;;;;26.35;14.25;;;4.00;94.10;;;;;;5063854;28;20055;-70
2021/01/23 03:04:44;;;;;;;28.42;15.25;;;4.00;94.20;;;;;;5071820;28;20104;-70
2021/01/23 03:07:12;;;;;;;26.25;14.52;;;4.00;94.30;;;;;;5074643;28;20044;-72
2021/01/23 03:09:38;;;;;;;27.65;15.52;;;4.00;94.20;;;;;;5074886;28;20032;-70
2021/01/23 03:12:04;;;;;;;28.70;14.80;;;4.00;94.20;;;;;;5063477;28;20122;-70
2021/01/23 03:14:30;;;;;;;28.63;15.10;;;4.10;94.20;;;;;;5092692;28;20476;-70
2021/01/23 03:16:56;;;;;;;25.25;14.32;;;4.10;94.20;;;;;;5074882;28;20024;-69
2021/01/23 03:19:23;;;;;;;24.38;13.35;;;4.10;94.30;;;;;;5063741;28;20052;-70
2021/01/23 03:21:51;;;;;;;26.77;13.85;;;4.10;94.20;;;;;;5092878;28;20023;-70
2021/01/23 03:24:18;;;;;;;26.70;13.88;;;4.10;94.10;;;;;;5074642;28;20024;-70
2021/01/23 03:26:44;;;;;;;26.55;14.00;;;4.10;94.10;;;;;;5074750;28;20028;-70
2021/01/23 03:29:10;;;;;;;25.75;14.40;;;4.10;94.00;;;;;;5063798;28;20078;-70
2021/01/23 03:31:36;;;;;;;26.52;14.50;;;4.10;94.10;;;;;;5074399;28;20024;-70
2021/01/23 03:34:02;;;;;;;26.33;13.50;;;4.10;94.10;;;;;;5074865;28;20077;-69
2021/01/23 03:36:28;;;;;;;25.63;13.88;;;4.10;94.00;;;;;;5074448;28;20032;-69
2021/01/23 03:38:54;;;;;;;25.13;13.52;;;4.00;94.00;;;;;;5073271;28;20035;-69
2021/01/23 03:41:20;;;;;;;26.08;13.35;;;4.00;94.00;;;;;;5074092;28;20122;-69
2021/01/23 03:43:46;;;;;;;26.63;13.38;;;4.10;94.10;;;;;;5074474;28;20111;-69
2021/01/23 03:46:12;;;;;;;26.20;14.30;;;4.10;94.10;;;;;;5073962;28;20044;-69
2021/01/23 03:48:38;;;;;;;25.48;12.57;;;4.10;94.10;;;;;;5074090;28;20459;-69
2021/01/23 03:51:05;;;;;;;24.75;13.73;;;4.10;94.10;;;;;;5073737;28;20032;-69
2021/01/23 03:53:31;;;;;;;26.83;13.25;;;4.10;94.10;;;;;;5091915;28;20093;-70
2021/01/23 03:55:56;;;;;;;22.98;13.15;;;4.00;94.10;;;;;;5091072;28;20036;-70
2021/01/23 03:58:23;;;;;;;25.08;13.82;;;4.10;94.30;;;;;;5074409;28;20032;-68
2021/01/23 04:00:48;;;;;;;23.13;12.32;;;4.10;94.30;;;;;;5096533;28;20525;-68
2021/01/23 04:03:14;;;;;;;26.92;14.43;;;4.00;94.30;;;;;;5077889;28;20104;-69
2021/01/23 04:05:40;;;;;;;27.92;14.38;;;4.10;94.30;;;;;;5095916;28;20028;-70
2021/01/23 04:08:07;;;;;;;27.08;14.13;;;4.00;94.30;;;;;;5077764;28;20575;-69
2021/01/23 04:10:33;;;;;;;29.85;15.85;;;4.10;94.30;;;;;;5077299;28;20046;-77
2021/01/23 04:12:59;;;;;;;26.80;14.90;;;4.10;94.30;;;;;;5078051;28;20046;-71
2021/01/23 04:15:25;;;;;;;28.58;14.40;;;4.10;94.40;;;;;;5076599;28;20028;-74
2021/01/23 04:17:51;;;;;;;28.30;14.05;;;4.10;94.40;;;;;;5063514;28;20467;-69
2021/01/23 04:20:17;;;;;;;24.17;12.32;;;4.10;94.40;;;;;;5092460;28;20028;-70
2021/01/23 04:22:43;;;;;;;24.70;13.57;;;4.10;94.40;;;;;;5075935;28;20023;-69
2021/01/23 04:25:09;;;;;;;26.88;13.68;;;4.10;94.40;;;;;;5076060;28;20378;-69
2021/01/23 04:27:36;;;;;;;27.15;14.48;;;4.10;94.50;;;;;;5076138;28;20032;-69
2021/01/23 04:30:06;;;;;;;27.45;13.65;;;4.10;94.40;;;;;;5076863;28;20550;-69
2021/01/23 04:32:32;;;;;;;28.33;13.63;;;4.00;94.50;;;;;;5077077;28;20458;-69
2021/01/23 04:34:58;;;;;;;28.63;15.00;;;4.00;94.50;;;;;;5076999;28;20023;-69
2021/01/23 04:37:24;;;;;;;25.65;13.48;;;4.10;94.60;;;;;;5077052;28;20031;-69
2021/01/23 04:39:49;;;;;;;26.85;15.15;;;4.10;94.60;;;;;;5076752;28;20476;-69
2021/01/23 04:42:15;;;;;;;28.10;15.30;;;4.10;94.70;;;;;;5077379;28;20063;-69
2021/01/23 04:44:41;;;;;;;27.52;14.95;;;4.10;94.70;;;;;;5077165;28;20028;-69
2021/01/23 04:47:07;;;;;;;30.30;14.15;;;4.10;94.70;;;;;;5076883;28;20490;-69
2021/01/23 04:49:35;;;;;;;32.67;15.20;;;4.10;94.70;;;;;;5095210;28;20035;-69
2021/01/23 04:52:06;;;;;;;29.10;13.70;;;4.20;94.70;;;;;;5094719;28;20035;-69
2021/01/23 04:54:35;;;;;;;30.15;16.08;;;4.20;94.70;;;;;;5077106;28;20020;-69
2021/01/23 04:57:02;;;;;;;28.48;14.70;;;4.20;94.70;;;;;;5076852;28;20020;-69
2021/01/23 04:59:28;;;;;;;24.88;14.52;;;4.20;94.80;;;;;;5076877;28;20032;-70
2021/01/23 05:02:20;;;;;;;25.75;13.50;;;4.20;94.80;;;;;;5094531;28;20085;-70
2021/01/23 05:04:47;;;;;;;28.67;13.90;;;4.30;94.90;;;;;;5095144;28;20035;-69
2021/01/23 05:07:24;;;;;;;27.83;15.40;;;4.30;94.80;;;;;;5076586;28;20024;-69
2021/01/23 05:09:50;;;;;;;29.92;16.58;;;4.30;94.90;;;;;;5076463;28;20516;-70
2021/01/23 05:12:32;;;;;;;32.47;16.30;;;4.20;94.70;;;;;;5093985;28;20052;-69
2021/01/23 05:14:58;;;;;;;29.35;16.60;;;4.30;94.80;;;;;;5094710;28;20028;-70
2021/01/23 05:17:24;;;;;;;28.63;15.77;;;4.30;95.00;;;;;;5094271;28;20024;-70
2021/01/23 05:19:50;;;;;;;29.70;14.75;;;4.30;95.00;;;;;;5075976;28;20077;-70
2021/01/23 05:22:16;;;;;;;31.67;15.10;;;4.30;95.00;;;;;;5076156;28;20028;-69
2021/01/23 05:24:52;;;;;;;26.98;14.95;;;4.40;95.00;;;;;;5076754;28;20024;-69
2021/01/23 05:27:19;;;;;;;29.70;16.50;;;4.30;95.00;;;;;;5076242;28;20024;-70
2021/01/23 05:29:58;;;;;;;25.15;12.80;;;4.40;95.10;;;;;;5094159;28;20024;-69
2021/01/23 05:32:26;;;;;;;31.23;16.02;;;4.40;95.10;;;;;;5094276;28;20085;-69
2021/01/23 05:34:52;;;;;;;30.77;14.75;;;4.40;95.10;;;;;;5075949;28;20111;-70
2021/01/23 05:37:37;;;;;;;29.15;15.13;;;4.40;95.10;;;;;;5076027;28;20508;-69
2021/01/23 05:40:04;;;;;;;27.05;14.73;;;4.40;95.10;;;;;;5075674;28;20501;-70
2021/01/23 05:42:29;;;;;;;28.08;14.15;;;4.40;95.10;;;;;;5076127;28;20097;-69
2021/01/23 05:45:08;;;;;;;25.02;14.15;;;4.40;95.10;;;;;;5075763;28;20020;-70
2021/01/23 05:47:34;;;;;;;28.08;13.25;;;4.50;95.20;;;;;;5075991;28;20044;-70
2021/01/23 05:50:00;;;;;;;24.40;13.35;;;4.50;95.30;;;;;;5075625;28;20028;-69
2021/01/23 05:52:26;;;;;;;26.88;14.23;;;4.50;95.30;;;;;;5075667;28;20038;-70
2021/01/23 05:54:52;;;;;;;25.60;14.40;;;4.60;95.30;;;;;;5075734;28;20028;-70
2021/01/23 05:57:18;;;;;;;31.70;17.08;;;4.60;95.20;;;;;;5075792;28;20027;-69
2021/01/23 05:59:44;;;;;;;40.40;17.33;;;4.60;95.20;;;;;;5075631;28;20450;-69
2021/01/23 06:02:13;;;;;;;30.50;16.02;;;4.60;95.20;;;;;;5075050;28;20028;-70
2021/01/23 06:04:44;;;;;;;35.08;17.98;;;4.60;95.20;;;;;;5075441;28;20106;-70
2021/01/23 06:07:10;;;;;;;32.90;16.08;;;4.60;95.20;;;;;;5075067;28;20031;-69
2021/01/23 06:09:38;;;;;;;34.25;17.85;;;4.70;95.30;;;;;;5093464;28;20024;-69
2021/01/23 06:12:14;;;;;;;29.48;14.70;;;4.70;95.30;;;;;;5075043;28;20537;-69
2021/01/23 06:14:40;;;;;;;24.23;13.95;;;4.70;95.30;;;;;;5075535;28;20020;-69
2021/01/23 06:17:06;;;;;;;26.95;14.40;;;4.70;95.20;;;;;;5075217;28;20095;-69
2021/01/23 06:19:34;;;;;;;30.13;14.65;;;4.70;95.20;;;;;;5075408;28;20374;-69
2021/01/23 06:22:00;;;;;;;26.77;14.82;;;4.80;95.20;;;;;;5074805;28;20024;-69
2021/01/23 06:24:32;;;;;;;25.55;14.05;;;4.70;95.20;;;;;;5075215;28;20027;-69
2021/01/23 06:26:59;;;;;;;27.35;14.55;;;4.80;95.30;;;;;;5075244;28;20031;-69
2021/01/23 06:29:42;;;;;;;26.50;14.38;;;4.80;95.40;;;;;;5074720;28;20020;-68
2021/01/23 06:32:20;;;;;;;25.90;14.95;;;4.90;95.50;;;;;;5074817;28;20169;-69
2021/01/23 06:35:13;;;;;;;27.25;14.90;;;4.90;95.50;;;;;;5093258;28;20031;-69
2021/01/23 06:37:39;;;;;;;29.42;15.40;;;5.00;95.40;;;;;;5070739;28;20028;-71
2021/01/23 06:40:07;;;;;;;31.80;17.30;;;5.00;95.40;;;;;;5074452;28;20096;-73
2021/01/23 06:42:42;;;;;;;25.17;12.30;;;5.10;95.40;;;;;;5066693;28;20024;-72
2021/01/23 06:45:11;;;;;;;30.17;16.17;;;5.10;95.10;;;;;;5074861;28;20020;-72
2021/01/23 06:47:42;;;;;;;30.58;14.93;;;5.10;95.20;;;;;;5093157;28;20524;-72
2021/01/23 06:50:09;;;;;;;31.45;16.08;;;5.10;95.20;;;;;;5073432;28;20462;-73
2021/01/23 06:52:49;;;;;;;27.25;13.95;;;5.10;95.10;;;;;;5074418;28;20088;-73
2021/01/23 06:55:16;;;;;;;31.63;16.95;;;5.10;95.00;;;;;;5092496;28;20024;-72
2021/01/23 06:57:44;;;;;;;28.55;15.50;;;5.10;95.00;;;;;;5092916;28;20028;-72
2021/01/23 07:00:11;;;;;;;30.50;15.88;;;5.10;95.00;;;;;;5092476;28;20077;-73
2021/01/23 07:02:37;;;;;;;25.77;12.85;;;5.10;94.90;;;;;;5074663;28;20099;-73
2021/01/23 07:05:07;;;;;;;30.95;16.13;;;5.10;94.80;;;;;;5074487;28;20335;-74
2021/01/23 07:07:39;;;;;;;22.42;11.25;;;5.00;94.70;;;;;;5061382;28;20024;-73
2021/01/23 07:10:15;;;;;;;29.25;13.93;;;5.10;94.80;;;;;;5092950;28;20060;-73
2021/01/23 07:12:49;;;;;;;29.10;14.18;;;5.00;94.80;;;;;;5074817;28;20051;-73
2021/01/23 07:15:23;;;;;;;33.63;17.25;;;5.00;95.00;;;;;;5074560;28;20039;-73
2021/01/23 07:17:49;;;;;;;32.28;15.90;;;5.00;95.00;;;;;;5081138;28;20024;-74
2021/01/23 07:20:17;;;;;;;38.35;18.23;;;5.00;95.00;;;;;;5092674;28;20036;-73
2021/01/23 07:22:44;;;;;;;49.28;22.27;;;5.10;95.10;;;;;;5074006;28;20035;-73
2021/01/23 07:25:15;;;;;;;35.67;16.65;;;5.10;95.10;;;;;;5091736;28;20358;-73
2021/01/23 07:27:42;;;;;;;33.28;15.90;;;5.10;95.00;;;;;;5092355;28;20359;-72
2021/01/23 07:30:15;;;;;;;45.35;17.90;;;5.10;94.90;;;;;;5073358;28;20410;-73
2021/01/23 07:32:43;;;;;;;61.85;24.67;;;5.10;94.90;;;;;;5073609;28;20063;-73
2021/01/23 07:35:10;;;;;;;44.53;19.60;;;5.10;94.90;;;;;;5095505;28;20024;-73
2021/01/23 07:37:42;;;;;;;43.75;21.80;;;5.10;95.00;;;;;;5072368;28;20020;-73
2021/01/23 07:40:10;;;;;;;46.65;21.23;;;5.20;94.90;;;;;;5071386;28;20020;-72
2021/01/23 07:42:37;;;;;;;32.38;16.38;;;5.20;95.30;;;;;;5074612;28;20020;-73
2021/01/23 07:45:11;;;;;;;21.48;11.25;;;5.20;94.80;;;;;;5092689;28;20028;-72
2021/01/23 07:47:37;;;;;;;34.03;17.75;;;5.20;94.60;;;;;;5066175;28;20044;-72
2021/01/23 07:50:12;;;;;;;31.55;14.20;;;5.20;94.50;;;;;;5093578;28;20035;-72
2021/01/23 07:52:39;;;;;;;32.67;15.60;;;5.20;94.40;;;;;;5065376;28;20081;-72
2021/01/23 07:55:07;;;;;;;24.70;13.23;;;5.10;94.30;;;;;;5092825;28;20035;-71
2021/01/23 07:57:33;;;;;;;35.38;15.75;;;5.10;94.20;;;;;;5077355;28;20402;-72
2021/01/23 07:59:59;;;;;;;30.30;13.68;;;5.00;93.90;;;;;;5077025;28;20016;-72
2021/01/23 08:02:25;;;;;;;28.92;12.95;;;5.00;94.10;;;;;;5077745;28;20032;-72
2021/01/23 08:04:52;;;;;;;27.35;12.95;;;4.90;94.00;;;;;;5063458;28;20382;-73
2021/01/23 08:07:29;;;;;;;28.75;13.57;;;4.90;93.90;;;;;;5089822;28;20031;-73
2021/01/23 08:10:18;;;;;;;35.28;17.20;;;4.80;94.10;;;;;;5072545;28;20035;-72
2021/01/23 08:12:55;;;;;;;31.85;13.02;;;4.80;94.20;;;;;;5068601;28;20036;-72
2021/01/23 08:15:26;;;;;;;30.23;14.23;;;4.80;94.40;;;;;;5068647;28;20117;-73
2021/01/23 08:17:53;;;;;;;28.52;14.15;;;4.80;94.40;;;;;;5088952;28;20505;-73
2021/01/23 08:20:39;;;;;;;27.80;13.80;;;4.80;94.50;;;;;;5072802;28;20024;-73
2021/01/23 08:23:12;;;;;;;29.45;14.13;;;4.80;94.60;;;;;;5072485;28;20031;-73
2021/01/23 08:25:50;;;;;;;23.30;11.52;;;4.90;94.70;;;;;;5069091;28;20475;-72
2021/01/23 08:28:27;;;;;;;27.70;13.07;;;4.90;94.50;;;;;;5062504;28;20466;-71
2021/01/23 08:30:54;;;;;;;30.73;15.38;;;5.00;94.70;;;;;;5091626;28;20032;-72
2021/01/23 08:33:19;;;;;;;25.33;12.90;;;5.00;94.60;;;;;;5073988;28;20048;-70
2021/01/23 08:35:45;;;;;;;28.08;13.57;;;5.00;94.40;;;;;;5069767;28;20481;-70
2021/01/23 08:38:11;;;;;;;25.92;13.55;;;5.00;94.20;;;;;;5083368;28;20032;-70
2021/01/23 08:40:40;;;;;;;28.27;15.45;;;5.00;94.40;;;;;;5074102;28;20035;-71
2021/01/23 08:43:06;;;;;;;28.08;14.10;;;5.10;94.60;;;;;;5072924;28;20054;-71
2021/01/23 08:45:32;;;;;;;24.50;14.32;;;5.20;94.70;;;;;;5091866;28;20059;-70
2021/01/23 08:47:58;;;;;;;32.22;16.27;;;5.30;94.70;;;;;;5072777;28;20044;-71
2021/01/23 08:50:24;;;;;;;45.80;19.13;;;5.30;94.60;;;;;;5074086;28;20462;-71
2021/01/23 08:52:50;;;;;;;41.47;18.55;;;5.40;94.50;;;;;;5068891;28;20028;-71
2021/01/23 08:55:16;;;;;;;26.42;14.57;;;5.50;94.30;;;;;;5072770;28;20446;-70
2021/01/23 08:57:42;;;;;;;26.08;14.52;;;5.50;94.40;;;;;;5071593;28;20455;-70
2021/01/23 09:00:11;;;;;;;30.50;14.40;;;5.60;94.40;;;;;;5083654;28;20036;-70
2021/01/23 09:02:36;;;;;;;27.48;14.45;;;5.70;94.30;;;;;;5061886;28;20035;-69
2021/01/23 09:05:03;;;;;;;25.83;14.05;;;5.70;94.00;;;;;;5087608;28;20032;-69
2021/01/23 09:07:29;;;;;;;25.67;13.80;;;5.70;93.80;;;;;;5084501;28;20418;-69
2021/01/23 09:09:55;;;;;;;25.17;12.68;;;5.80;94.10;;;;;;5085504;28;20071;-69
2021/01/23 09:12:20;;;;;;;27.55;15.00;;;5.80;93.80;;;;;;5070965;28;20498;-69
2021/01/23 09:14:46;;;;;;;24.52;14.18;;;5.80;93.60;;;;;;5073226;28;20038;-70
2021/01/23 09:17:13;;;;;;;25.02;13.07;;;5.90;93.50;;;;;;5086291;28;20098;-72
2021/01/23 09:19:38;;;;;;;23.25;13.82;;;5.90;93.60;;;;;;5068328;28;20097;-71
2021/01/23 09:22:04;;;;;;;24.20;13.70;;;5.90;93.30;;;;;;5069854;28;20470;-70
2021/01/23 09:24:30;;;;;;;23.33;13.52;;;6.00;93.50;;;;;;5074068;28;20028;-70
2021/01/23 09:26:56;;;;;;;26.73;13.35;;;6.10;93.70;;;;;;5088623;28;20477;-73
2021/01/23 09:29:21;;;;;;;24.42;14.40;;;6.20;93.70;;;;;;5089163;28;20074;-72
2021/01/23 09:31:47;;;;;;;26.83;13.57;;;6.30;93.70;;;;;;5089155;28;20109;-71
2021/01/23 09:34:14;;;;;;;28.25;15.48;;;6.40;93.70;;;;;;5070279;28;20039;-71
2021/01/23 09:36:41;;;;;;;29.08;15.15;;;6.60;93.30;;;;;;5086954;28;20028;-71
2021/01/23 09:39:07;;;;;;;24.25;14.35;;;6.70;93.20;;;;;;5069317;28;20016;-70
2021/01/23 09:41:32;;;;;;;22.25;11.73;;;6.80;92.50;;;;;;5066759;28;20136;-70
2021/01/23 09:43:58;;;;;;;24.10;13.77;;;6.90;92.50;;;;;;5083857;28;20081;-74
2021/01/23 09:46:24;;;;;;;21.58;12.10;;;7.00;92.50;;;;;;5066785;28;20051;-74
2021/01/23 09:48:50;;;;;;;20.00;11.82;;;7.00;92.20;;;;;;5071574;28;20035;-74
2021/01/23 09:51:16;;;;;;;22.55;12.30;;;7.10;91.50;;;;;;5069318;28;20428;-74
2021/01/23 09:53:41;;;;;;;24.27;13.88;;;7.10;91.40;;;;;;5072765;28;20032;-74
2021/01/23 09:56:07;;;;;;;19.45;12.07;;;7.00;91.00;;;;;;5061680;28;20058;-69
2021/01/23 09:58:33;;;;;;;23.85;13.00;;;7.00;90.90;;;;;;5079067;28;20481;-73
2021/01/23 10:01:02;;;;;;;24.35;13.80;;;7.00;91.30;;;;;;5071643;28;20031;-75
2021/01/23 10:03:28;;;;;;;19.13;12.23;;;7.10;91.50;;;;;;5062698;28;20484;-73
2021/01/23 10:05:54;;;;;;;21.88;13.25;;;7.30;91.40;;;;;;5061451;28;20060;-73
2021/01/23 10:08:20;;;;;;;20.92;12.25;;;7.50;91.80;;;;;;5069225;28;20032;-73
2021/01/23 10:10:45;;;;;;;19.20;11.20;;;7.90;92.60;;;;;;5063485;28;20097;-73
2021/01/23 10:13:11;;;;;;;19.48;11.88;;;8.30;92.70;;;;;;5083685;28;20035;-74
2021/01/23 10:15:37;;;;;;;16.83;10.75;;;8.70;91.80;;;;;;5069831;28;20047;-73
2021/01/23 10:18:03;;;;;;;17.52;11.13;;;9.20;92.20;;;;;;5073707;28;20032;-74
2021/01/23 10:20:29;;;;;;;20.85;11.45;;;9.90;91.70;;;;;;5069682;28;20031;-74
2021/01/23 10:22:55;;;;;;;16.40;10.07;;;10.40;88.00;;;;;;5072357;28;20024;-74
2021/01/23 10:25:21;;;;;;;20.88;11.90;;;10.40;83.80;;;;;;5073528;28;20055;-74
2021/01/23 10:27:50;;;;;;;17.70;11.68;;;10.10;80.60;;;;;;5088902;28;20032;-74
2021/01/23 10:30:16;;;;;;;18.02;10.82;;;9.70;79.80;;;;;;5066110;28;20024;-73
2021/01/23 10:32:42;;;;;;;17.73;11.35;;;9.40;80.90;;;;;;5063778;28;20025;-73
2021/01/23 10:35:09;;;;;;;17.33;11.80;;;9.40;82.20;;;;;;5068735;28;20381;-74
2021/01/23 10:37:34;;;;;;;15.93;10.20;;;9.90;85.10;;;;;;5063216;28;20050;-74
2021/01/23 10:40:01;;;;;;;16.27;10.80;;;10.60;85.40;;;;;;5080465;28;20032;-74
2021/01/23 10:42:27;;;;;;;14.40;9.63;;;11.30;83.60;;;;;;5064913;28;20086;-73
2021/01/23 10:44:52;;;;;;;15.43;10.38;;;11.90;81.00;;;;;;5063802;28;20433;-75
2021/01/23 10:47:19;;;;;;;16.23;10.27;;;12.40;76.80;;;;;;5074125;28;20040;-73
2021/01/23 10:49:45;;;;;;;14.45;9.35;;;12.80;75.60;;;;;;5069073;28;20039;-76
2021/01/23 10:52:10;;;;;;;15.73;10.35;;;13.10;73.60;;;;;;5079851;28;20032;-74
2021/01/23 10:54:36;;;;;;;17.35;11.20;;;13.30;72.80;;;;;;5087542;28;20588;-74
2021/01/23 10:57:03;;;;;;;21.58;12.70;;;13.30;70.40;;;;;;5066512;28;20456;-75
2021/01/23 10:59:29;;;;;;;28.40;15.60;;;13.50;69.10;;;;;;5063582;28;20470;-74
2021/01/23 11:01:55;;;;;;;23.23;13.35;;;13.30;68.10;;;;;;5067868;28;20043;-77
2021/01/23 11:04:21;;;;;;;21.00;13.18;;;13.20;67.50;;;;;;5065884;28;20032;-65
2021/01/23 11:06:47;;;;;;;18.60;12.70;;;13.20;68.50;;;;;;5067844;28;20359;-77
2021/01/23 11:09:13;;;;;;;19.50;11.27;;;13.40;69.10;;;;;;5067070;28;20114;-76
2021/01/23 11:11:38;;;;;;;15.30;10.30;;;13.70;69.20;;;;;;5074729;28;20517;-75
2021/01/23 11:14:04;;;;;;;15.20;10.23;;;14.00;68.50;;;;;;5066050;28;20032;-78
2021/01/23 11:16:30;;;;;;;18.92;11.82;;;14.10;66.90;;;;;;5085872;28;20051;-77
2021/01/23 11:18:56;;;;;;;17.33;11.35;;;14.20;66.00;;;;;;5071261;28;20035;-80
2021/01/23 11:21:22;;;;;;;18.80;11.75;;;14.20;65.20;;;;;;5071527;28;20042;-79
2021/01/23 11:23:48;;;;;;;20.27;13.38;;;14.20;64.40;;;;;;5073686;28;20036;-79
2021/01/23 11:26:13;;;;;;;16.10;10.90;;;14.20;65.10;;;;;;5073069;28;20057;-77
2021/01/23 11:28:39;;;;;;;24.02;14.68;;;14.30;64.40;;;;;;5072711;28;20063;-77
2021/01/23 11:31:08;;;;;;;20.48;12.55;;;14.40;64.20;;;;;;5073992;28;20086;-75
2021/01/23 11:33:35;;;;;;;24.02;14.30;;;14.50;64.30;;;;;;5069221;28;20045;-79
2021/01/23 11:36:02;;;;;;;23.73;14.15;;;14.60;64.30;;;;;;5060626;28;20526;-79
2021/01/23 11:38:28;;;;;;;22.60;13.25;;;14.60;64.60;;;;;;5064095;28;20126;-78
2021/01/23 11:40:54;;;;;;;21.83;13.88;;;14.60;64.10;;;;;;5073452;28;20028;-77
2021/01/23 11:43:21;;;;;;;22.15;14.07;;;14.40;62.80;;;;;;5076209;28;20097;-78
2021/01/23 11:45:46;;;;;;;22.95;15.73;;;13.90;62.50;;;;;;5066595;28;20043;-78
2021/01/23 11:48:12;;;;;;;33.83;17.67;;;13.50;63.50;;;;;;5071556;28;20024;-80
2021/01/23 11:50:38;;;;;;;32.75;18.70;;;13.30;64.10;;;;;;5086745;28;20042;-79
2021/01/23 11:53:04;;;;;;;45.40;22.20;;;13.10;65.00;;;;;;5072835;28;20536;-79
2021/01/23 11:55:31;;;;;;;46.90;24.48;;;13.40;66.00;;;;;;5065247;28;20249;-85
2021/01/23 11:57:57;;;;;;;35.13;18.50;;;13.80;65.40;;;;;;5067503;28;20487;-83
2021/01/23 12:00:23;;;;;;;22.77;14.02;;;14.00;64.50;;;;;;5074600;28;20031;-78
2021/01/23 12:02:49;;;;;;;23.08;14.30;;;13.90;62.80;;;;;;5068550;28;20394;-80
2021/01/23 12:05:19;;;;;;;19.15;12.95;;;13.50;62.40;;;;;;5093905;28;20036;-75
2021/01/23 12:07:47;;;;;;;15.50;9.95;;;12.90;62.20;;;;;;5075617;28;20028;-76
2021/01/23 12:10:15;;;;;;;18.42;11.48;;;12.20;62.10;;;;;;5094992;28;20028;-81
2021/01/23 12:12:41;;;;;;;18.80;11.98;;;11.30;63.00;;;;;;5070577;28;20110;-79
2021/01/23 12:15:08;;;;;;;19.20;12.50;;;10.60;64.70;;;;;;5070393;28;20031;-79
2021/01/23 12:17:33;;;;;;;19.83;12.57;;;10.00;66.50;;;;;;5076466;28;20024;-80
2021/01/23 12:19:59;;;;;;;19.55;13.65;;;9.50;68.20;;;;;;5069618;28;20110;-80
2021/01/23 12:22:25;;;;;;;23.45;13.75;;;9.20;69.60;;;;;;5070302;28;20063;-80
2021/01/23 12:24:51;;;;;;;21.77;12.95;;;8.90;70.50;;;;;;5077900;28;20020;-79
2021/01/23 12:27:16;;;;;;;22.30;13.82;;;8.60;71.40;;;;;;5077340;28;20031;-71
2021/01/23 12:29:43;;;;;;;22.42;12.55;;;8.30;72.30;;;;;;5076920;28;20035;-71
2021/01/23 12:32:09;;;;;;;21.17;12.90;;;8.20;73.40;;;;;;5095278;28;20032;-72
2021/01/23 12:34:35;;;;;;;24.20;13.85;;;8.00;74.10;;;;;;5095022;28;20020;-82
2021/01/23 12:37:01;;;;;;;27.60;14.98;;;7.80;75.40;;;;;;5095619;28;20359;-81
2021/01/23 12:39:27;;;;;;;23.63;14.13;;;7.70;75.70;;;;;;5077488;28;20024;-81